Time;durP1;ratioP1;P1;durP2;ratioP2;P2;SDS_P1;SDS_P2;PMS_P1;PMS_P2;Temp;Humidity;BMP_temperature;BMP_pressure;BME280_temperature;BME280_humidity;BME280_pressure;Samples;Min_cycle;Max_cycle;Signal;HPM_P1;HPM_P2
2021/12/17 00:00:57;;;;;;;;;;;;;;;18.81;47.52;100869.28;2100450;28;19971;-64
2021/12/17 00:04:24;;;;;;;;;;;;;;;18.84;47.55;100869.00;2095676;28;19947;-63
2021/12/17 00:05:42;;;;;;;;;;;;;;;18.84;47.57;100869.00;2100001;28;19916;-63
2021/12/17 00:06:47;;;;;;;;;;;;;;;18.87;47.37;100872.47;2099808;28;20286;-64
2021/12/17 00:07:48;;;;;;;;;;;;;;;18.90;47.25;100874.94;2093602;28;19920;-63
2021/12/17 00:08:50;;;;;;;;;;;;;;;18.92;47.23;100871.06;2099910;28;20363;-63
2021/12/17 00:09:51;;;;;;;;;;;;;;;18.95;47.19;100869.94;2099760;28;20384;-63
2021/12/17 00:10:51;;;;;;;;;;;;;;;18.97;47.08;100874.28;2098643;28;19916;-63
2021/12/17 00:11:51;;;;;;;;;;;;;;;18.97;47.13;100878.88;2101065;28;20390;-63
2021/12/17 00:12:52;;;;;;;;;;;;;;;19.01;46.92;100885.81;2099294;28;20398;-63
2021/12/17 00:13:54;;;;;;;;;;;;;;;19.01;47.01;100881.22;2100040;28;19920;-63
2021/12/17 00:14:56;;;;;;;;;;;;;;;19.02;46.99;100885.69;2099074;28;19991;-63
2021/12/17 00:15:57;;;;;;;;;;;;;;;19.04;46.77;100880.09;2097994;28;19977;-63
2021/12/17 00:17:00;;;;;;;;;;;;;;;19.04;46.94;100883.69;2099416;28;19959;-63
2021/12/17 00:18:10;;;;;;;;;;;;;;;19.05;46.78;100879.09;2100344;28;19920;-63
2021/12/17 00:19:22;;;;;;;;;;;;;;;19.04;46.78;100877.38;2099004;28;19923;-63
2021/12/17 00:43:50;;;;;;;;;;;;;;;19.00;46.94;100862.22;2099328;28;19916;-63
2021/12/17 00:48:35;;;;;;;;;;;;;;;18.99;47.13;100871.44;2099045;28;20799;-63
2021/12/17 00:49:37;;;;;;;;;;;;;;;18.98;47.08;100865.06;2098890;28;19912;-63
2021/12/17 00:52:56;;;;;;;;;;;;;;;18.99;46.91;100861.38;2099008;28;19916;-63
2021/12/17 00:53:58;;;;;;;;;;;;;;;18.98;47.07;100856.03;2098611;28;19944;-63
2021/12/17 00:54:58;;;;;;;;;;;;;;;18.97;46.89;100857.88;2108326;28;19961;-63
2021/12/17 00:55:59;;;;;;;;;;;;;;;18.98;47.03;100858.75;2099306;28;19916;-63
2021/12/17 00:57:04;;;;;;;;;;;;;;;18.98;46.95;100858.75;2096077;28;20432;-63
2021/12/17 00:58:04;;;;;;;;;;;;;;;18.97;47.07;100854.28;2093614;28;19918;-64
2021/12/17 00:59:06;;;;;;;;;;;;;;;18.98;46.96;100862.34;2093973;28;19919;-63
2021/12/17 01:00:17;;;;;;;;;;;;;;;18.97;46.99;100862.50;2090956;28;19923;-63
2021/12/17 01:01:17;;;;;;;;;;;;;;;18.97;46.96;100852.44;2091243;28;19916;-64
2021/12/17 01:02:20;;;;;;;;;;;;;;;18.97;47.08;100862.50;2098567;28;19916;-63
2021/12/17 01:03:20;;;;;;;;;;;;;;;18.98;47.08;100859.59;2102057;28;20777;-63
2021/12/17 01:04:20;;;;;;;;;;;;;;;18.97;47.11;100863.34;2100745;28;20372;-63
2021/12/17 01:05:23;;;;;;;;;;;;;;;18.97;46.89;100865.22;2099656;28;20377;-63
2021/12/17 01:06:24;;;;;;;;;;;;;;;18.98;47.08;100869.69;2097323;28;19916;-63
2021/12/17 01:07:26;;;;;;;;;;;;;;;18.97;46.90;100865.22;2098970;28;19969;-64
2021/12/17 01:08:27;;;;;;;;;;;;;;;18.97;47.08;100865.22;2099852;28;19904;-63
2021/12/17 01:09:27;;;;;;;;;;;;;;;18.97;46.99;100859.75;2087801;28;20248;-62
2021/12/17 01:10:33;;;;;;;;;;;;;;;18.95;47.06;100861.75;2091742;28;19986;-63
2021/12/17 01:11:34;;;;;;;;;;;;;;;18.97;47.07;100862.50;2092389;28;19989;-63
2021/12/17 01:12:34;;;;;;;;;;;;;;;18.96;46.97;100861.63;2090712;28;19920;-63
2021/12/17 01:13:37;;;;;;;;;;;;;;;18.96;46.96;100860.75;2091375;28;20375;-68
2021/12/17 01:14:38;;;;;;;;;;;;;;;18.96;46.98;100867.09;2080448;28;20030;-68
2021/12/17 01:15:40;;;;;;;;;;;;;;;18.96;46.96;100866.19;2083049;28;19927;-68
2021/12/17 01:16:40;;;;;;;;;;;;;;;18.95;46.97;100861.75;2093047;28;20035;-68
2021/12/17 01:17:43;;;;;;;;;;;;;;;18.95;46.97;100859.03;2090519;28;19931;-68
2021/12/17 01:19:01;;;;;;;;;;;;;;;18.94;47.04;100862.75;2092074;28;19920;-68
2021/12/17 01:24:03;;;;;;;;;;;;;;;18.94;47.16;100857.28;2090904;28;19909;-68
2021/12/17 01:25:10;;;;;;;;;;;;;;;18.93;47.01;100861.00;2090651;28;19979;-68
2021/12/17 01:35:29;;;;;;;;;;;;;;;18.92;47.05;100862.03;2091328;28;19916;-68
2021/12/17 01:36:31;;;;;;;;;;;;;;;18.90;47.18;100861.28;2090302;28;20110;-68
2021/12/17 01:42:35;;;;;;;;;;;;;;;18.90;47.17;100864.00;2084213;28;20291;-68
2021/12/17 01:43:40;;;;;;;;;;;;;;;18.90;47.15;100866.75;2088725;28;20111;-68
2021/12/17 01:44:42;;;;;;;;;;;;;;;18.89;47.07;100859.53;2090958;28;19988;-68
2021/12/17 01:45:42;;;;;;;;;;;;;;;18.88;47.08;100868.72;2092433;28;19916;-68
2021/12/17 01:46:45;;;;;;;;;;;;;;;18.89;47.00;100870.44;2090818;28;20294;-68
2021/12/17 01:47:45;;;;;;;;;;;;;;;18.88;47.11;100871.47;2091202;28;19916;-68
2021/12/17 01:55:50;;;;;;;;;;;;;;;18.87;47.15;100872.47;2083120;28;20415;-68
2021/12/17 01:59:17;;;;;;;;;;;;;;;18.85;47.09;100870.72;2090229;28;19916;-68
2021/12/17 01:59:39;;;;;;;;;;;;;;;18.84;47.10;100873.59;2089606;28;19912;-68
2021/12/17 02:00:41;;;;;;;;;;;;;;;18.83;47.17;100867.25;2092202;28;19913;-69
2021/12/17 02:01:41;;;;;;;;;;;;;;;18.82;47.15;100871.00;2090911;28;19920;-68
2021/12/17 02:02:50;;;;;;;;;;;;;;;18.83;47.27;100872.72;2082009;28;20303;-69
2021/12/17 02:03:51;;;;;;;;;;;;;;;18.82;47.20;100876.44;2084462;28;19913;-69
2021/12/17 02:04:51;;;;;;;;;;;;;;;18.84;47.29;100882.66;2083106;28;19928;-68
2021/12/17 02:05:51;;;;;;;;;;;;;;;18.83;47.14;100878.16;2088884;28;19924;-68
2021/12/17 02:06:52;;;;;;;;;;;;;;;18.83;47.18;100882.78;2088254;28;20244;-69
2021/12/17 02:07:55;;;;;;;;;;;;;;;18.82;47.21;100881.06;2090189;28;19908;-68
2021/12/17 02:08:58;;;;;;;;;;;;;;;18.83;47.19;100888.22;2089426;28;20417;-68
2021/12/17 02:20:23;;;;;;;;;;;;;;;18.80;47.33;100878.44;2091582;28;20394;-69
2021/12/17 02:30:47;;;;;;;;;;;;;;;18.76;47.31;100876.94;2091431;28;20500;-68
2021/12/17 02:31:48;;;;;;;;;;;;;;;18.75;47.24;100872.47;2090313;28;21631;-68
2021/12/17 02:32:49;;;;;;;;;;;;;;;18.75;47.44;100874.34;2089610;28;20044;-68
2021/12/17 02:33:49;;;;;;;;;;;;;;;18.74;47.30;100875.31;2079856;28;19970;-68
2021/12/17 02:35:12;;;;;;;;;;;;;;;18.73;47.39;100871.72;2079811;28;20368;-68
2021/12/17 02:36:17;;;;;;;;;;;;;;;18.73;47.41;100877.19;2089500;28;20168;-68
2021/12/17 02:37:21;;;;;;;;;;;;;;;18.73;47.44;100866.25;2087630;28;19908;-68
2021/12/17 02:38:22;;;;;;;;;;;;;;;18.70;47.53;100866.53;2087064;28;19927;-68
2021/12/17 02:45:41;;;;;;;;;;;;;;;18.70;47.49;100865.66;2090012;28;19920;-69
2021/12/17 02:46:41;;;;;;;;;;;;;;;18.70;47.47;100862.94;2090863;28;20898;-69
2021/12/17 02:47:42;;;;;;;;;;;;;;;18.69;47.45;100859.34;2088802;28;19908;-68
2021/12/17 02:48:42;;;;;;;;;;;;;;;18.69;47.42;100859.34;2092691;28;20057;-69
2021/12/17 02:49:43;;;;;;;;;;;;;;;18.69;47.59;100858.44;2092297;28;19920;-68
2021/12/17 02:50:48;;;;;;;;;;;;;;;18.68;47.41;100857.59;2092010;28;19923;-68
2021/12/17 02:51:49;;;;;;;;;;;;;;;18.68;47.38;100852.13;2093766;28;20026;-68
2021/12/17 02:52:50;;;;;;;;;;;;;;;18.66;47.50;100847.78;2091558;28;19923;-69
2021/12/17 02:53:51;;;;;;;;;;;;;;;18.67;47.60;100853.13;2092983;28;19947;-68
2021/12/17 02:54:52;;;;;;;;;;;;;;;18.66;47.47;100848.66;2100054;28;19916;-69
2021/12/17 02:55:54;;;;;;;;;;;;;;;18.64;47.46;100851.53;2095482;28;19920;-68
2021/12/17 02:56:54;;;;;;;;;;;;;;;18.65;47.56;100846.94;2084613;28;19916;-69
2021/12/17 02:57:55;;;;;;;;;;;;;;;18.64;47.46;100859.72;2090449;28;19923;-69
2021/12/17 02:58:56;;;;;;;;;;;;;;;18.64;47.46;100847.91;2091981;28;19928;-69
2021/12/17 02:59:56;;;;;;;;;;;;;;;18.63;47.55;100854.38;2092216;28;20204;-69
2021/12/17 03:00:57;;;;;;;;;;;;;;;18.64;47.46;100856.09;2092801;28;19916;-69
2021/12/17 03:01:57;;;;;;;;;;;;;;;18.63;47.58;100848.91;2091725;28;19923;-69
2021/12/17 03:02:58;;;;;;;;;;;;;;;18.64;47.51;100847.91;2091613;28;19955;-69
2021/12/17 03:03:58;;;;;;;;;;;;;;;18.63;47.54;100851.66;2089635;28;19920;-68
2021/12/17 03:04:59;;;;;;;;;;;;;;;18.62;47.64;100848.06;2091104;28;19943;-69
2021/12/17 03:05:59;;;;;;;;;;;;;;;18.62;47.46;100849.94;2091933;28;19930;-69
2021/12/17 03:07:00;;;;;;;;;;;;;;;18.62;47.47;100848.06;2090134;28;20067;-69
2021/12/17 03:08:00;;;;;;;;;;;;;;;18.62;47.58;100847.19;2092750;28;19916;-69
2021/12/17 03:09:01;;;;;;;;;;;;;;;18.60;47.69;100855.50;2091922;28;20261;-69
2021/12/17 03:11:02;;;;;;;;;;;;;;;18.61;47.49;100856.38;2086475;28;19916;-67
2021/12/17 03:12:07;;;;;;;;;;;;;;;18.61;47.58;100856.38;2087819;28;20057;-67
2021/12/17 03:13:09;;;;;;;;;;;;;;;18.60;47.66;100860.97;2099856;28;19916;-67
2021/12/17 03:14:10;;;;;;;;;;;;;;;18.60;47.37;100865.56;2090535;28;20074;-67
2021/12/17 03:16:28;;;;;;;;;;;;;;;18.59;47.45;100855.63;2096483;28;20115;-68
2021/12/17 03:23:58;;;;;;;;;;;;;;;18.55;47.62;100840.50;2083628;28;19956;-67
2021/12/17 03:24:58;;;;;;;;;;;;;;;18.55;47.62;100840.50;2084967;28;20378;-67
2021/12/17 03:26:00;;;;;;;;;;;;;;;18.55;47.57;100845.97;2093143;28;19943;-67
2021/12/17 03:27:04;;;;;;;;;;;;;;;18.55;47.63;100843.25;2090876;28;20421;-68
2021/12/17 03:28:04;;;;;;;;;;;;;;;18.54;47.66;100844.22;2088094;28;19912;-68
2021/12/17 03:29:06;;;;;;;;;;;;;;;18.53;47.56;100839.78;2095389;28;20248;-68
2021/12/17 03:30:07;;;;;;;;;;;;;;;18.54;47.74;100849.69;2094058;28;19922;-67
2021/12/17 03:31:07;;;;;;;;;;;;;;;18.53;47.71;100848.81;2085574;28;19920;-68
2021/12/17 03:32:08;;;;;;;;;;;;;;;18.53;47.64;100857.00;2091047;28;19916;-67
2021/12/17 03:33:08;;;;;;;;;;;;;;;18.51;47.64;100839.88;2085259;28;20369;-67
2021/12/17 03:34:21;;;;;;;;;;;;;;;18.51;47.64;100852.69;2077281;28;20027;-67
2021/12/17 03:35:21;;;;;;;;;;;;;;;18.51;47.75;100855.41;2097122;28;20390;-67
2021/12/17 03:36:22;;;;;;;;;;;;;;;18.52;47.80;100854.41;2092319;28;20394;-67
2021/12/17 03:37:22;;;;;;;;;;;;;;;18.51;47.68;100860.88;2082286;28;20412;-67
2021/12/17 03:38:22;;;;;;;;;;;;;;;18.50;47.81;100850.94;2085756;28;20512;-67
2021/12/17 03:39:26;;;;;;;;;;;;;;;18.50;47.79;100848.22;2090443;28;19923;-67
2021/12/17 03:40:28;;;;;;;;;;;;;;;18.49;47.81;100844.59;2091392;28;19916;-67
2021/12/17 03:41:37;;;;;;;;;;;;;;;18.49;47.65;100849.19;2085799;28;19916;-68
2021/12/17 03:42:38;;;;;;;;;;;;;;;18.48;47.63;100844.75;2083980;28;19916;-68
2021/12/17 03:43:39;;;;;;;;;;;;;;;18.48;47.54;100848.34;2088374;28;19915;-67
2021/12/17 03:44:39;;;;;;;;;;;;;;;18.48;47.74;100845.59;2092702;28;19922;-67
2021/12/17 03:45:40;;;;;;;;;;;;;;;18.48;47.72;100844.75;2092119;28;19923;-68
2021/12/17 03:46:41;;;;;;;;;;;;;;;18.48;47.74;100839.28;2099960;28;20007;-67
2021/12/17 03:47:41;;;;;;;;;;;;;;;18.46;47.65;100836.66;2077415;28;20422;-67
2021/12/17 03:48:42;;;;;;;;;;;;;;;18.47;47.67;100838.44;2083747;28;19916;-68
2021/12/17 03:49:43;;;;;;;;;;;;;;;18.47;47.55;100848.44;2090798;28;19922;-67
2021/12/17 03:50:43;;;;;;;;;;;;;;;18.46;47.77;100852.19;2091892;28;20153;-68
2021/12/17 03:52:04;;;;;;;;;;;;;;;18.47;47.65;100848.44;2090984;28;19916;-68
2021/12/17 03:53:05;;;;;;;;;;;;;;;18.46;47.76;100857.66;2086330;28;20332;-67
2021/12/17 03:54:06;;;;;;;;;;;;;;;18.45;47.74;100850.44;2091808;28;19908;-68
2021/12/17 03:55:06;;;;;;;;;;;;;;;18.45;47.58;100850.44;2092303;28;20423;-68
2021/12/17 03:56:06;;;;;;;;;;;;;;;18.45;47.73;100850.44;2091249;28;20647;-67
2021/12/17 03:57:10;;;;;;;;;;;;;;;18.43;47.84;100850.59;2092271;28;19934;-68
2021/12/17 03:58:11;;;;;;;;;;;;;;;18.43;47.77;100854.19;2084123;28;19947;-67
2021/12/17 03:59:11;;;;;;;;;;;;;;;18.42;47.81;100852.47;2088724;28;20601;-67
2021/12/17 04:00:12;;;;;;;;;;;;;;;18.42;47.86;100855.19;2086846;28;19930;-68
2021/12/17 04:01:12;;;;;;;;;;;;;;;18.41;47.71;100856.16;2083009;28;19923;-67
2021/12/17 04:02:13;;;;;;;;;;;;;;;18.41;47.87;100858.88;2083081;28;20162;-67
2021/12/17 04:03:13;;;;;;;;;;;;;;;18.42;47.64;100857.91;2091536;28;19920;-68
2021/12/17 04:04:14;;;;;;;;;;;;;;;18.41;47.59;100860.75;2090891;28;19920;-68
2021/12/17 04:05:14;;;;;;;;;;;;;;;18.41;47.88;100861.63;2092825;28;20545;-68
2021/12/17 04:06:14;;;;;;;;;;;;;;;18.40;47.96;100859.91;2090517;28;20003;-67
2021/12/17 04:07:15;;;;;;;;;;;;;;;18.39;47.92;100858.16;2092884;28;19908;-67
2021/12/17 04:08:15;;;;;;;;;;;;;;;18.39;47.76;100863.59;2096847;28;20399;-68
2021/12/17 04:09:19;;;;;;;;;;;;;;;18.39;47.78;100858.16;2097158;28;20313;-68
2021/12/17 04:10:21;;;;;;;;;;;;;;;18.39;47.68;100855.41;2092789;28;19916;-68
2021/12/17 04:11:21;;;;;;;;;;;;;;;18.39;47.78;100862.75;2091138;28;19993;-68
2021/12/17 04:12:31;;;;;;;;;;;;;;;18.38;47.63;100853.69;2090923;28;19916;-68
2021/12/17 04:13:38;;;;;;;;;;;;;;;18.38;47.73;100850.97;2092622;28;19930;-68
2021/12/17 04:14:45;;;;;;;;;;;;;;;18.37;47.70;100857.44;2092229;28;20409;-68
2021/12/17 04:15:53;;;;;;;;;;;;;;;18.37;47.78;100857.44;2090793;28;19922;-67
2021/12/17 04:16:56;;;;;;;;;;;;;;;18.36;47.87;100858.41;2093719;28;20019;-67
2021/12/17 04:17:57;;;;;;;;;;;;;;;18.36;47.70;100858.41;2096452;28;19916;-68
2021/12/17 04:18:58;;;;;;;;;;;;;;;18.35;47.92;100851.22;2090939;28;19920;-68
2021/12/17 04:19:59;;;;;;;;;;;;;;;18.35;47.86;100862.16;2094194;28;19993;-68
2021/12/17 04:21:01;;;;;;;;;;;;;;;18.35;47.75;100867.59;2095412;28;20630;-68
2021/12/17 04:22:01;;;;;;;;;;;;;;;18.34;47.68;100857.66;2090918;28;19914;-68
2021/12/17 04:23:02;;;;;;;;;;;;;;;18.34;47.77;100860.38;2089836;28;19923;-68
2021/12/17 04:24:02;;;;;;;;;;;;;;;18.33;47.79;100858.66;2089179;28;19916;-68
2021/12/17 04:25:03;;;;;;;;;;;;;;;18.33;47.88;100861.41;2087839;28;20379;-68
2021/12/17 04:26:04;;;;;;;;;;;;;;;18.33;47.96;100861.41;2091228;28;19934;-68
2021/12/17 04:27:05;;;;;;;;;;;;;;;18.33;47.70;100855.94;2091323;28;19916;-68
2021/12/17 04:28:06;;;;;;;;;;;;;;;18.32;47.76;100856.91;2086224;28;19912;-68
2021/12/17 04:29:07;;;;;;;;;;;;;;;18.32;47.91;100858.78;2091660;28;20405;-68
2021/12/17 04:30:07;;;;;;;;;;;;;;;18.32;47.82;100866.97;2091266;28;20038;-68
2021/12/17 04:31:08;;;;;;;;;;;;;;;18.31;47.89;100868.84;2089234;28;19954;-68
2021/12/17 04:32:08;;;;;;;;;;;;;;;18.31;47.84;100873.44;2094908;28;19915;-68
2021/12/17 04:33:08;;;;;;;;;;;;;;;18.31;47.87;100871.56;2092465;28;20191;-68
2021/12/17 04:34:11;;;;;;;;;;;;;;;18.30;47.87;100864.38;2091583;28;19915;-68
2021/12/17 04:35:12;;;;;;;;;;;;;;;18.30;47.82;100864.38;2088104;28;19916;-68
2021/12/17 04:36:17;;;;;;;;;;;;;;;18.29;47.75;100868.09;2086790;28;20181;-68
2021/12/17 04:37:18;;;;;;;;;;;;;;;18.28;47.96;100866.38;2088917;28;20491;-68
2021/12/17 04:38:21;;;;;;;;;;;;;;;18.28;47.92;100866.38;2090365;28;20401;-68
2021/12/17 04:39:22;;;;;;;;;;;;;;;18.28;47.85;100865.50;2091923;28;19923;-68
2021/12/17 04:40:24;;;;;;;;;;;;;;;18.28;47.94;100865.50;2090707;28;20325;-68
2021/12/17 04:43:52;;;;;;;;;;;;;;;18.26;47.83;100854.72;2093182;28;19916;-68
2021/12/17 04:44:56;;;;;;;;;;;;;;;18.26;47.82;100857.44;2091507;28;19916;-68
2021/12/17 04:46:28;;;;;;;;;;;;;;;18.26;47.89;100859.31;2091802;28;20020;-68
2021/12/17 04:57:35;;;;;;;;;;;;;;;18.21;47.89;100889.69;2088762;28;19912;-68
2021/12/17 04:58:36;;;;;;;;;;;;;;;18.20;47.88;100880.66;2088621;28;20409;-68
2021/12/17 04:59:36;;;;;;;;;;;;;;;18.21;47.99;100873.31;2092085;28;20355;-68
2021/12/17 05:00:37;;;;;;;;;;;;;;;18.20;47.92;100868.84;2090412;28;20026;-68
2021/12/17 05:01:37;;;;;;;;;;;;;;;18.21;47.89;100865.13;2087111;28;19927;-70
2021/12/17 05:02:42;;;;;;;;;;;;;;;18.20;47.87;100857.91;2094961;28;19916;-63
2021/12/17 05:03:43;;;;;;;;;;;;;;;18.19;48.03;100858.94;2104531;28;19920;-62
2021/12/17 05:04:44;;;;;;;;;;;;;;;18.20;48.08;100860.66;2104128;28;19924;-62
2021/12/17 05:05:44;;;;;;;;;;;;;;;18.18;48.02;100857.22;2104188;28;19916;-63
2021/12/17 05:06:44;;;;;;;;;;;;;;;18.18;48.09;100859.94;2096761;28;19916;-62
2021/12/17 05:07:56;;;;;;;;;;;;;;;18.18;48.01;100865.41;2094772;28;19912;-63
2021/12/17 05:09:03;;;;;;;;;;;;;;;18.18;47.93;100865.41;2102896;28;20447;-63
2021/12/17 05:11:38;;;;;;;;;;;;;;;18.17;47.94;100859.03;2101279;28;19912;-62
2021/12/17 05:19:38;;;;;;;;;;;;;;;18.14;47.69;100872.94;2103570;28;19920;-63
2021/12/17 05:21:45;;;;;;;;;;;;;;;18.14;48.01;100880.28;2103778;28;20393;-62
2021/12/17 05:22:49;;;;;;;;;;;;;;;18.13;47.88;100879.41;2104850;28;19939;-62
2021/12/17 05:23:51;;;;;;;;;;;;;;;18.13;47.85;100884.88;2104025;28;19912;-63
2021/12/17 05:24:52;;;;;;;;;;;;;;;18.13;47.92;100879.41;2103800;28;19927;-63
2021/12/17 05:25:52;;;;;;;;;;;;;;;18.12;47.90;100883.13;2104631;28;19912;-62
2021/12/17 05:26:53;;;;;;;;;;;;;;;18.12;48.03;100883.13;2103741;28;19912;-63
2021/12/17 05:27:55;;;;;;;;;;;;;;;18.13;47.87;100889.47;2102604;28;19916;-62
2021/12/17 05:28:55;;;;;;;;;;;;;;;18.13;47.81;100889.47;2103798;28;19970;-63
2021/12/17 05:29:56;;;;;;;;;;;;;;;18.11;47.88;100883.25;2103475;28;19969;-63
2021/12/17 05:30:56;;;;;;;;;;;;;;;18.11;48.00;100888.72;2104618;28;20271;-63
2021/12/17 05:31:57;;;;;;;;;;;;;;;18.11;48.04;100884.13;2104337;28;19916;-63
2021/12/17 05:32:57;;;;;;;;;;;;;;;18.11;47.91;100880.53;2104260;28;19978;-62
2021/12/17 05:33:58;;;;;;;;;;;;;;;18.11;47.93;100880.53;2102883;28;19912;-62
2021/12/17 05:34:58;;;;;;;;;;;;;;;18.10;47.87;100885.09;2102976;28;19916;-63
2021/12/17 05:35:59;;;;;;;;;;;;;;;18.10;48.15;100876.03;2087545;28;19983;-63
2021/12/17 05:36:59;;;;;;;;;;;;;;;18.08;47.88;100880.75;2101491;28;19919;-63
2021/12/17 05:37:59;;;;;;;;;;;;;;;18.08;48.11;100875.28;2104278;28;19912;-63
2021/12/17 05:39:00;;;;;;;;;;;;;;;18.08;47.94;100886.22;2103793;28;20174;-63
2021/12/17 05:40:00;;;;;;;;;;;;;;;18.08;47.88;100880.75;2103298;28;19959;-63
2021/12/17 05:41:00;;;;;;;;;;;;;;;18.08;48.16;100875.28;2095900;28;19916;-62
2021/12/17 05:42:01;;;;;;;;;;;;;;;18.07;48.18;100879.03;2098917;28;19923;-62
2021/12/17 05:43:02;;;;;;;;;;;;;;;18.07;47.86;100873.56;2103837;28;19916;-63
2021/12/17 05:44:03;;;;;;;;;;;;;;;18.07;47.98;100876.31;2102794;28;20323;-63
2021/12/17 05:45:20;;;;;;;;;;;;;;;18.06;48.11;100874.56;2103395;28;19935;-63
2021/12/17 05:46:36;;;;;;;;;;;;;;;18.06;47.92;100882.75;2104052;28;20336;-63
2021/12/17 05:47:36;;;;;;;;;;;;;;;18.06;47.95;100871.84;2096884;28;19920;-63
2021/12/17 05:48:37;;;;;;;;;;;;;;;18.06;48.09;100874.56;2102637;28;19952;-63
2021/12/17 05:49:38;;;;;;;;;;;;;;;18.05;48.12;100870.09;2104050;28;20018;-63
2021/12/17 05:50:39;;;;;;;;;;;;;;;18.04;48.16;100874.69;2102660;28;20084;-63
2021/12/17 05:51:39;;;;;;;;;;;;;;;18.04;48.23;100879.28;2101725;28;19923;-62
2021/12/17 05:52:39;;;;;;;;;;;;;;;18.05;47.98;100881.00;2098718;28;19969;-63
2021/12/17 05:53:40;;;;;;;;;;;;;;;18.04;48.20;100879.28;2098589;28;19921;-63
2021/12/17 05:54:40;;;;;;;;;;;;;;;18.04;47.95;100879.28;2101976;28;19935;-63
2021/12/17 05:55:40;;;;;;;;;;;;;;;18.03;48.04;100874.81;2097966;28;20366;-63
2021/12/17 05:56:41;;;;;;;;;;;;;;;18.03;48.25;100874.81;2103428;28;19965;-62
2021/12/17 05:57:41;;;;;;;;;;;;;;;18.02;47.99;100876.66;2100673;28;19916;-63
2021/12/17 05:58:42;;;;;;;;;;;;;;;18.03;48.07;100880.25;2103282;28;19935;-63
2021/12/17 05:59:42;;;;;;;;;;;;;;;18.00;48.13;100874.06;2102995;28;19916;-62
2021/12/17 06:00:43;;;;;;;;;;;;;;;18.00;48.09;100882.25;2103414;28;20074;-62
2021/12/17 06:01:44;;;;;;;;;;;;;;;18.00;47.95;100884.97;2103699;28;19963;-63
2021/12/17 06:02:44;;;;;;;;;;;;;;;18.00;48.06;100884.97;2102560;28;19916;-63
2021/12/17 06:03:44;;;;;;;;;;;;;;;18.00;48.10;100881.38;2103433;28;20406;-64
2021/12/17 06:04:44;;;;;;;;;;;;;;;17.99;48.14;100888.69;2103150;28;19928;-63
2021/12/17 06:05:45;;;;;;;;;;;;;;;17.99;48.06;100894.16;2103064;28;19995;-63
2021/12/17 06:06:47;;;;;;;;;;;;;;;17.98;48.17;100889.69;2104176;28;20521;-63
2021/12/17 06:07:47;;;;;;;;;;;;;;;17.97;48.03;100890.69;2102397;28;20425;-63
2021/12/17 06:08:48;;;;;;;;;;;;;;;17.98;47.93;100886.97;2100820;28;20014;-63
2021/12/17 06:09:48;;;;;;;;;;;;;;;17.98;48.15;100889.69;2103841;28;19916;-63
2021/12/17 06:10:48;;;;;;;;;;;;;;;17.97;48.07;100887.94;2093678;28;19962;-70
2021/12/17 06:11:49;;;;;;;;;;;;;;;17.97;48.26;100896.13;2082159;28;20961;-70
2021/12/17 06:12:49;;;;;;;;;;;;;;;17.96;48.05;100894.41;2082120;28;19923;-70
2021/12/17 06:13:49;;;;;;;;;;;;;;;17.95;47.99;100892.66;2089632;28;20172;-70
2021/12/17 06:14:49;;;;;;;;;;;;;;;17.95;48.27;100898.09;2093832;28;19916;-71
2021/12/17 06:15:50;;;;;;;;;;;;;;;17.95;48.41;100891.78;2091478;28;19959;-70
2021/12/17 06:16:50;;;;;;;;;;;;;;;17.94;48.03;100907.28;2091719;28;19930;-70
2021/12/17 06:17:51;;;;;;;;;;;;;;;17.94;48.24;100896.38;2093486;28;19922;-70
2021/12/17 06:18:51;;;;;;;;;;;;;;;17.93;48.19;100894.66;2089596;28;19919;-70
2021/12/17 06:19:52;;;;;;;;;;;;;;;17.93;48.17;100899.22;2093035;28;19916;-70
2021/12/17 06:20:52;;;;;;;;;;;;;;;17.93;48.17;100897.38;2093447;28;20318;-70
2021/12/17 06:21:52;;;;;;;;;;;;;;;17.93;48.17;100894.66;2091267;28;20491;-70
2021/12/17 06:22:53;;;;;;;;;;;;;;;17.92;48.28;100901.09;2092651;28;20660;-70
2021/12/17 06:23:53;;;;;;;;;;;;;;;17.92;48.23;100903.81;2092627;28;19939;-70
2021/12/17 06:24:53;;;;;;;;;;;;;;;17.91;48.15;100896.63;2090794;28;19923;-70
2021/12/17 06:25:54;;;;;;;;;;;;;;;17.92;48.19;100903.81;2094987;28;19923;-70
2021/12/17 06:26:54;;;;;;;;;;;;;;;17.92;48.17;100908.41;2085828;28;20034;-70
2021/12/17 06:27:55;;;;;;;;;;;;;;;17.91;48.26;100907.56;2076379;28;19917;-70
2021/12/17 06:28:55;;;;;;;;;;;;;;;17.91;48.21;100904.81;2083844;28;20531;-70
2021/12/17 06:29:57;;;;;;;;;;;;;;;17.91;48.06;100896.63;2082372;28;19920;-70
2021/12/17 06:30:58;;;;;;;;;;;;;;;17.91;48.36;100907.56;2093015;28;19908;-70
2021/12/17 06:31:58;;;;;;;;;;;;;;;17.90;48.03;100900.34;2092547;28;19923;-70
2021/12/17 06:32:58;;;;;;;;;;;;;;;17.90;48.22;100900.34;2091489;28;20439;-70
2021/12/17 06:33:58;;;;;;;;;;;;;;;17.90;48.22;100896.75;2093084;28;20432;-70
2021/12/17 06:34:59;;;;;;;;;;;;;;;17.89;48.13;100898.63;2090771;28;19915;-70
2021/12/17 06:35:59;;;;;;;;;;;;;;;17.89;48.05;100895.03;2085061;28;19923;-70
2021/12/17 06:36:59;;;;;;;;;;;;;;;17.89;48.24;100898.63;2090489;28;19923;-70
2021/12/17 06:38:00;;;;;;;;;;;;;;;17.89;48.06;100898.63;2092914;28;19982;-70
2021/12/17 06:39:00;;;;;;;;;;;;;;;17.88;48.33;100898.72;2085432;28;19963;-70
2021/12/17 06:40:02;;;;;;;;;;;;;;;17.87;48.07;100889.69;2086629;28;19920;-71
2021/12/17 06:41:02;;;;;;;;;;;;;;;17.88;48.29;100894.13;2086537;28;19916;-70
2021/12/17 06:42:04;;;;;;;;;;;;;;;17.87;48.00;100900.59;2093201;28;20123;-70
2021/12/17 06:43:04;;;;;;;;;;;;;;;17.87;48.03;100899.72;2097146;28;20374;-70
2021/12/17 06:44:06;;;;;;;;;;;;;;;17.87;48.24;100895.13;2091965;28;19951;-63
2021/12/17 06:45:15;;;;;;;;;;;;;;;17.87;48.00;100906.06;2088954;28;19923;-63
2021/12/17 06:46:38;;;;;;;;;;;;;;;17.86;48.04;100903.44;2092746;28;21020;-62
2021/12/17 06:47:39;;;;;;;;;;;;;;;17.86;48.26;100903.44;2088357;28;19923;-62
2021/12/17 06:48:39;;;;;;;;;;;;;;;17.85;48.12;100910.75;2091246;28;20442;-62
2021/12/17 07:09:10;;;;;;;;;;;;;;;17.79;47.76;100903.91;2091747;28;19923;-63
2021/12/17 07:10:39;;;;;;;;;;;;;;;17.81;47.83;100911.13;2093492;28;20430;-64
2021/12/17 07:22:04;;;;;;;;;;;;;;;17.98;46.85;100897.00;2090097;28;20589;-73
2021/12/17 07:23:22;;;;;;;;;;;;;;;17.97;46.64;100890.69;2092168;28;20448;-71
2021/12/17 07:24:48;;;;;;;;;;;;;;;17.98;46.69;100903.34;2093717;28;20238;-72
2021/12/17 07:33:40;;;;;;;;;;;;;;;18.02;46.30;100903.09;2086618;28;20054;-72
2021/12/17 07:36:07;;;;;;;;;;;;;;;18.02;45.94;100911.28;2086192;28;19916;-72
2021/12/17 07:39:27;;;;;;;;;;;;;;;18.02;45.81;100908.53;2089616;28;20874;-72
2021/12/17 07:40:28;;;;;;;;;;;;;;;18.02;45.94;100914.88;2091488;28;19915;-72
2021/12/17 07:41:28;;;;;;;;;;;;;;;18.01;46.15;100910.41;2094427;28;20982;-72
2021/12/17 07:42:29;;;;;;;;;;;;;;;18.02;46.10;100906.69;2094034;28;19908;-71
2021/12/17 07:43:50;;;;;;;;;;;;;;;18.02;45.99;100909.41;2090908;28;20367;-71
2021/12/17 07:44:51;;;;;;;;;;;;;;;18.04;45.92;100906.56;2085949;28;19923;-72
2021/12/17 07:45:51;;;;;;;;;;;;;;;18.03;45.92;100902.09;2087390;28;19924;-72
2021/12/17 07:46:52;;;;;;;;;;;;;;;18.03;45.87;100896.63;2091543;28;19916;-72
2021/12/17 07:47:52;;;;;;;;;;;;;;;18.05;45.77;100902.84;2093534;28;19998;-72
2021/12/17 07:48:53;;;;;;;;;;;;;;;18.06;45.78;100899.13;2092658;28;20176;-72
2021/12/17 07:49:53;;;;;;;;;;;;;;;18.06;45.84;100905.44;2089594;28;19923;-73
2021/12/17 07:50:53;;;;;;;;;;;;;;;18.08;45.85;100914.38;2090037;28;19951;-72
2021/12/17 07:51:54;;;;;;;;;;;;;;;18.09;45.86;100913.38;2091236;28;19959;-72
2021/12/17 07:52:54;;;;;;;;;;;;;;;18.12;45.76;100917.72;2092314;28;19916;-72
2021/12/17 07:53:56;;;;;;;;;;;;;;;18.09;45.86;100920.72;2088803;28;20037;-74
2021/12/17 07:54:56;;;;;;;;;;;;;;;18.14;45.65;100908.41;2093266;28;20448;-74
2021/12/17 07:55:57;;;;;;;;;;;;;;;18.18;45.61;100911.78;2093957;28;20444;-74
2021/12/17 07:56:57;;;;;;;;;;;;;;;18.20;45.57;100912.50;2093989;28;19935;-74